createdAt,value
2019-04-28T00:00:52.811Z,73.32
2019-04-28T00:03:21.324Z,73.24
2019-04-28T00:05:48.339Z,73.82
2019-04-28T00:08:15.757Z,73.78
2019-04-28T00:10:42.808Z,74.31
2019-04-28T00:13:10.986Z,74.27
2019-04-28T00:15:38.434Z,73.64
2019-04-28T00:18:05.559Z,73.21
2019-04-28T00:20:43.359Z,73.75
2019-04-28T00:23:21.676Z,73.57
2019-04-28T00:26:01.511Z,72.99
2019-04-28T00:28:28.734Z,73.05
2019-04-28T00:30:57.088Z,72.93
2019-04-28T00:33:24.250Z,72.58
2019-04-28T00:35:51.612Z,71.78
2019-04-28T00:38:18.857Z,71.96
2019-04-28T00:40:45.911Z,72.14
2019-04-28T00:43:12.962Z,71.34
2019-04-28T00:45:41.322Z,71.30
2019-04-28T00:48:08.559Z,71.00
2019-04-28T00:50:41.365Z,70.58
2019-04-28T00:53:09.458Z,70.77
2019-04-28T00:55:36.494Z,70.50
2019-04-28T00:58:03.519Z,70.37
2019-04-28T01:00:34.329Z,70.54
2019-04-28T01:03:02.176Z,69.85
2019-04-28T01:05:31.181Z,70.47
2019-04-28T01:08:01.110Z,70.52
2019-04-28T01:10:30.892Z,70.85
2019-04-28T01:12:58.342Z,70.55
2019-04-28T01:15:42.600Z,70.54
2019-04-28T01:18:20.127Z,71.04
2019-04-28T01:20:49.580Z,71.85
2019-04-28T01:23:17.421Z,72.44
2019-04-28T01:25:50.075Z,72.27
2019-04-28T01:28:17.298Z,72.28
2019-04-28T01:31:09.659Z,73.26
2019-04-28T01:34:02.389Z,73.43
2019-04-28T01:36:30.196Z,73.15
2019-04-28T01:38:57.330Z,73.10
2019-04-28T01:41:26.592Z,73.10
2019-04-28T01:43:53.685Z,72.66
2019-04-28T01:46:22.131Z,72.69
2019-04-28T01:48:49.778Z,72.35
2019-04-28T01:51:16.910Z,71.75
2019-04-28T01:53:44.594Z,71.49
2019-04-28T01:56:14.506Z,71.17
2019-04-28T01:58:43.090Z,71.12
2019-04-28T02:01:10.591Z,71.13
2019-04-28T02:03:40.419Z,71.22
2019-04-28T02:06:07.695Z,71.65
2019-04-28T02:08:34.962Z,71.47
2019-04-28T02:11:03.956Z,71.11
2019-04-28T02:13:31.009Z,71.13
2019-04-28T02:16:00.046Z,71.12
2019-04-28T02:18:27.363Z,71.64
2019-04-28T02:21:03.625Z,71.77
2019-04-28T02:23:31.800Z,72.06
2019-04-28T02:25:59.716Z,72.97
2019-04-28T02:28:27.011Z,73.12
2019-04-28T02:30:54.529Z,72.64
2019-04-28T02:33:21.594Z,72.55
2019-04-28T02:35:51.102Z,72.50
2019-04-28T02:38:18.087Z,72.50
2019-04-28T02:40:45.099Z,72.96
2019-04-28T02:43:12.164Z,73.08
2019-04-28T02:45:41.316Z,73.08
2019-04-28T02:48:14.519Z,73.03
2019-04-28T02:50:54.306Z,72.55
2019-04-28T02:53:26.497Z,72.96
2019-04-28T02:55:53.549Z,73.12
2019-04-28T02:58:22.368Z,73.32
2019-04-28T03:01:02.919Z,73.22
2019-04-28T03:03:21.097Z,73.12
2019-04-28T03:05:51.035Z,73.61
2019-04-28T03:08:17.271Z,74.02
2019-04-28T03:10:44.909Z,74.05
2019-04-28T03:13:13.423Z,74.45
2019-04-28T03:15:41.717Z,74.73
2019-04-28T03:18:10.821Z,74.69
2019-04-28T03:20:37.701Z,74.94
2019-04-28T03:23:08.773Z,75.18
2019-04-28T03:25:47.360Z,75.60
2019-04-28T03:28:43.367Z,75.85
2019-04-28T03:32:01.475Z,76.31
2019-04-28T03:34:04.090Z,76.49
2019-04-28T03:36:33.045Z,76.46
2019-04-28T03:39:00.732Z,76.53
2019-04-28T03:41:30.882Z,76.44
2019-04-28T03:44:00.512Z,76.91
2019-04-28T03:46:30.490Z,77.16
2019-04-28T03:48:57.724Z,77.15
2019-04-28T03:51:24.770Z,77.16
2019-04-28T03:53:53.011Z,77.29
2019-04-28T03:56:20.960Z,76.99
2019-04-28T03:58:50.396Z,77.08
2019-04-28T04:01:17.175Z,77.32
2019-04-28T04:03:44.198Z,77.26
2019-04-28T04:06:11.241Z,77.63
2019-04-28T04:08:40.851Z,78.04
2019-04-28T04:11:25.674Z,77.99
2019-04-28T04:14:12.369Z,78.03
2019-04-28T04:17:00.158Z,78.12
2019-04-28T04:19:32.128Z,78.14
2019-04-28T04:22:00.369Z,77.78
2019-04-28T04:24:27.580Z,77.67
2019-04-28T04:26:54.773Z,77.67
2019-04-28T04:29:23.580Z,77.63
2019-04-28T04:31:51.276Z,77.16
2019-04-28T04:34:20.186Z,76.90
2019-04-28T04:36:47.501Z,76.48
2019-04-28T04:39:14.531Z,76.22
2019-04-28T04:41:43.813Z,76.25
2019-04-28T04:44:11.229Z,75.89
2019-04-28T04:46:41.235Z,75.43
2019-04-28T04:49:07.400Z,75.06
2019-04-28T04:51:34.409Z,74.68
2019-04-28T04:54:01.590Z,74.33
2019-04-28T04:56:30.188Z,73.88
2019-04-28T04:58:57.470Z,73.77
2019-04-28T05:01:40.889Z,74.03
2019-04-28T05:04:17.545Z,73.97
2019-04-28T05:06:45.011Z,74.23
2019-04-28T05:09:12.030Z,72.30
2019-04-28T05:11:40.057Z,72.29
2019-04-28T05:14:09.648Z,71.91
2019-04-28T05:16:36.944Z,72.54
2019-04-28T05:19:04.063Z,73.04
2019-04-28T05:21:33.460Z,72.97
2019-04-28T05:24:15.655Z,73.00
2019-04-28T05:26:47.708Z,71.57
2019-04-28T05:29:12.056Z,70.86
2019-04-28T05:31:40.932Z,70.52
2019-04-28T05:34:11.551Z,69.10
2019-04-28T05:36:42.450Z,69.25
2019-04-28T05:39:07.513Z,68.08
2019-04-28T05:41:34.601Z,67.89
2019-04-28T05:44:01.636Z,66.82
2019-04-28T05:46:29.997Z,66.82
2019-04-28T05:49:10.189Z,66.11
2019-04-28T05:51:40.268Z,66.94
2019-04-28T05:54:19.739Z,65.41
2019-04-28T05:57:10.751Z,65.90
2019-04-28T06:00:01.151Z,65.54
2019-04-28T06:02:34.451Z,65.67
2019-04-28T06:05:01.903Z,64.15
2019-04-28T06:07:51.160Z,64.53
2019-04-28T06:10:20.167Z,64.57
2019-04-28T06:12:47.304Z,66.18
2019-04-28T06:15:14.444Z,65.28
2019-04-28T06:17:41.886Z,64.07
2019-04-28T06:20:11.815Z,64.17
2019-04-28T06:22:39.308Z,63.78
2019-04-28T06:25:11.714Z,62.75
2019-04-28T06:27:43.308Z,63.08
2019-04-28T06:30:10.575Z,61.24
2019-04-28T06:32:37.638Z,60.82
2019-04-28T06:35:04.736Z,60.50
2019-04-28T06:37:31.877Z,59.90
2019-04-28T06:39:58.952Z,59.31
2019-04-28T06:42:26.086Z,60.25
2019-04-28T06:44:53.117Z,59.95
2019-04-28T06:47:22.753Z,59.13
2019-04-28T06:49:49.860Z,59.06
2019-04-28T06:52:16.885Z,58.86
2019-04-28T06:54:44.000Z,59.65
2019-04-28T06:57:12.175Z,61.30
2019-04-28T06:59:39.194Z,59.63
2019-04-28T07:02:06.315Z,59.28
2019-04-28T07:04:33.317Z,58.44
2019-04-28T07:07:00.374Z,57.91
2019-04-28T07:09:27.466Z,56.33
2019-04-28T07:11:54.642Z,57.41
2019-04-28T07:14:21.711Z,56.83
2019-04-28T07:16:48.847Z,56.51
2019-04-28T07:19:16.258Z,56.58
2019-04-28T07:21:58.966Z,54.60
2019-04-28T07:24:30.002Z,56.53
2019-04-28T07:26:57.064Z,56.71
2019-04-28T07:29:24.147Z,56.61
2019-04-28T07:31:52.823Z,53.93
2019-04-28T07:34:21.889Z,54.38
2019-04-28T07:37:17.355Z,53.21
2019-04-28T07:39:56.722Z,55.16
2019-04-28T07:42:28.642Z,53.95
2019-04-28T07:45:03.345Z,54.48
2019-04-28T07:47:40.472Z,55.64
2019-04-28T07:50:10.800Z,54.66
2019-04-28T07:53:02.429Z,56.32
2019-04-28T07:55:47.535Z,56.50
2019-04-28T07:58:17.696Z,55.31
2019-04-28T08:00:44.997Z,56.42
2019-04-28T08:03:13.417Z,53.62
2019-04-28T08:05:42.865Z,53.24
2019-04-28T08:08:10.254Z,52.05
2019-04-28T08:10:37.326Z,52.67
2019-04-28T08:13:05.742Z,51.88
2019-04-28T08:15:32.863Z,50.36
2019-04-28T08:18:01.481Z,49.96
2019-04-28T08:20:35.471Z,49.69
2019-04-28T08:23:03.296Z,49.26
2019-04-28T08:25:30.869Z,50.82
2019-04-28T08:27:58.236Z,47.93
2019-04-28T08:30:27.110Z,47.25
2019-04-28T08:33:12.948Z,48.03
2019-04-28T08:35:40.009Z,47.62
2019-04-28T08:38:07.255Z,42.74
2019-04-28T08:40:36.591Z,42.24
2019-04-28T08:43:04.885Z,44.88
2019-04-28T08:45:32.211Z,45.71
2019-04-28T08:47:59.390Z,46.82
2019-04-28T08:50:26.453Z,45.71
2019-04-28T08:52:53.641Z,44.98
2019-04-28T08:55:20.748Z,46.68
2019-04-28T08:57:48.110Z,43.72
2019-04-28T09:00:17.622Z,42.26
2019-04-28T09:02:46.191Z,45.38
2019-04-28T09:05:13.811Z,46.76
2019-04-28T09:07:40.957Z,44.72
2019-04-28T09:10:08.322Z,42.08
2019-04-28T09:12:37.516Z,40.62
2019-04-28T09:15:07.859Z,40.00
2019-04-28T09:17:36.665Z,40.17
2019-04-28T09:20:05.463Z,38.25
2019-04-28T09:22:34.950Z,42.70
2019-04-28T09:25:03.407Z,44.53
2019-04-28T09:27:32.259Z,44.62
2019-04-28T09:30:00.135Z,43.26
2019-04-28T09:32:31.865Z,42.44
2019-04-28T09:34:58.966Z,42.72
2019-04-28T09:37:29.103Z,43.25
2019-04-28T09:40:04.591Z,41.29
2019-04-28T09:42:50.427Z,37.56
2019-04-28T09:45:23.862Z,38.13
2019-04-28T09:47:51.079Z,41.06
2019-04-28T09:50:18.340Z,36.31
2019-04-28T09:52:48.506Z,33.81
2019-04-28T09:55:14.416Z,31.49
2019-04-28T09:57:41.524Z,29.79
2019-04-28T10:00:16.637Z,31.43
2019-04-28T10:02:44.256Z,30.26
2019-04-28T10:05:12.393Z,28.96
2019-04-28T10:07:42.282Z,27.87
2019-04-28T10:10:10.835Z,27.41
2019-04-28T10:12:38.338Z,27.66
2019-04-28T10:15:07.005Z,26.21
2019-04-28T10:17:34.735Z,24.36
2019-04-28T10:20:12.610Z,29.78
2019-04-28T10:22:41.026Z,28.27
2019-04-28T10:25:22.445Z,29.10
2019-04-28T10:27:54.403Z,28.52
2019-04-28T10:30:25.112Z,29.03
2019-04-28T10:32:55.502Z,26.38
2019-04-28T10:35:24.348Z,25.54
2019-04-28T10:37:53.542Z,25.64
2019-04-28T10:40:33.485Z,25.03
2019-04-28T10:43:00.764Z,23.91
2019-04-28T10:45:29.883Z,23.86
2019-04-28T10:47:57.314Z,24.33
2019-04-28T10:50:36.827Z,23.99
2019-04-28T10:53:05.923Z,23.54
2019-04-28T10:55:35.151Z,22.93
2019-04-28T10:58:04.556Z,21.51
2019-04-28T11:00:33.656Z,20.38
2019-04-28T11:03:03.172Z,20.36
2019-04-28T11:05:38.186Z,21.17
2019-04-28T11:08:09.511Z,21.04
2019-04-28T11:10:42.271Z,19.75
2019-04-28T11:13:09.471Z,20.39
2019-04-28T11:15:37.301Z,22.92
2019-04-28T11:18:05.679Z,24.50
2019-04-28T11:20:33.174Z,26.02
2019-04-28T11:23:00.312Z,27.14
2019-04-28T11:25:29.628Z,26.99
2019-04-28T11:27:57.979Z,26.31
2019-04-28T11:30:29.246Z,27.23
2019-04-28T11:33:09.018Z,25.36
2019-04-28T11:35:44.549Z,24.96
2019-04-28T11:38:15.178Z,25.09
2019-04-28T11:40:45.496Z,24.49
2019-04-28T11:43:14.706Z,25.00
2019-04-28T11:45:45.153Z,29.46
2019-04-28T11:48:13.636Z,24.82
2019-04-28T11:50:43.175Z,23.43
2019-04-28T11:53:12.908Z,24.03
2019-04-28T11:55:41.501Z,23.30
2019-04-28T11:58:08.973Z,23.60
2019-04-28T12:00:37.095Z,23.49
2019-04-28T12:03:06.744Z,23.95
2019-04-28T12:05:46.330Z,24.86
2019-04-28T12:08:15.245Z,26.55
2019-04-28T12:10:55.757Z,30.82
2019-04-28T12:13:50.745Z,29.79
2019-04-28T12:16:31.151Z,30.15
2019-04-28T12:19:21.355Z,28.89
2019-04-28T12:21:48.461Z,28.94
2019-04-28T12:24:18.946Z,25.84
2019-04-28T12:26:48.055Z,23.63
2019-04-28T12:29:15.292Z,25.87
2019-04-28T12:31:42.484Z,23.76
2019-04-28T12:34:09.578Z,21.95
2019-04-28T12:36:36.800Z,20.41
2019-04-28T12:39:08.602Z,21.30
2019-04-28T12:41:36.135Z,21.83
2019-04-28T12:44:03.500Z,20.63
2019-04-28T12:46:30.694Z,19.00
2019-04-28T12:49:01.231Z,19.34
2019-04-28T12:51:32.490Z,20.03
2019-04-28T12:54:04.024Z,21.98
2019-04-28T12:56:32.743Z,22.97
2019-04-28T12:59:08.116Z,23.48
2019-04-28T13:01:54.824Z,20.50
2019-04-28T13:04:32.554Z,23.29
2019-04-28T13:07:01.457Z,22.81
2019-04-28T13:09:31.102Z,20.40
2019-04-28T13:12:00.331Z,18.00
2019-04-28T13:14:31.437Z,19.79
2019-04-28T13:16:58.510Z,18.72
2019-04-28T13:19:25.604Z,19.95
2019-04-28T13:21:53.407Z,19.72
2019-04-28T13:24:20.465Z,21.23
2019-04-28T13:26:52.154Z,22.46
2019-04-28T13:29:18.729Z,18.28
2019-04-28T13:31:45.856Z,15.79
2019-04-28T13:34:17.774Z,15.42
2019-04-28T13:36:44.868Z,16.00
2019-04-28T13:39:16.755Z,17.28
2019-04-28T13:41:43.916Z,16.41
2019-04-28T13:44:13.023Z,14.54
2019-04-28T13:46:40.204Z,15.87
2019-04-28T13:49:18.141Z,14.95
2019-04-28T13:51:53.863Z,16.23
2019-04-28T13:54:23.856Z,17.84
2019-04-28T13:56:51.367Z,18.71
2019-04-28T13:59:20.222Z,17.00
2019-04-28T14:05:10.131Z,18.09
2019-04-28T14:07:37.244Z,18.21
2019-04-28T14:10:04.545Z,15.73
2019-04-28T14:12:39.858Z,16.09
2019-04-28T14:15:15.386Z,25.15
2019-04-28T14:17:51.635Z,25.55
2019-04-28T14:20:24.359Z,27.08
2019-04-28T14:22:51.812Z,28.42
2019-04-28T14:25:19.216Z,27.39
2019-04-28T14:27:48.335Z,25.02
2019-04-28T14:30:15.858Z,21.64
2019-04-28T14:32:43.170Z,19.60
2019-04-28T14:35:10.436Z,23.86
2019-04-28T14:37:37.626Z,25.19
2019-04-28T14:40:05.393Z,27.53
2019-04-28T14:42:36.879Z,23.23
2019-04-28T14:45:06.790Z,20.81
2019-04-28T14:47:34.279Z,22.32
2019-04-28T14:50:03.960Z,20.47
2019-04-28T14:52:31.153Z,18.70
2019-04-28T14:54:58.255Z,23.17
2019-04-28T14:57:25.399Z,35.67
2019-04-28T14:59:54.901Z,30.77
2019-04-28T15:02:42.305Z,26.19
2019-04-28T15:05:19.389Z,19.89
2019-04-28T15:08:04.967Z,18.79
2019-04-28T15:10:44.388Z,19.00
2019-04-28T15:13:11.603Z,22.04
2019-04-28T15:15:38.860Z,22.54
2019-04-28T15:18:06.084Z,26.22
2019-04-28T15:20:36.256Z,22.29
2019-04-28T15:23:03.548Z,19.13
2019-04-28T15:25:30.667Z,19.90
2019-04-28T15:27:59.338Z,23.67
2019-04-28T15:30:26.429Z,20.92
2019-04-28T15:32:53.557Z,18.78
2019-04-28T15:35:31.317Z,20.05
2019-04-28T15:37:58.383Z,19.39
2019-04-28T15:40:25.730Z,22.80
2019-04-28T15:43:06.554Z,26.40
2019-04-28T15:45:54.630Z,24.88
2019-04-28T15:48:28.939Z,20.32
2019-04-28T15:50:57.814Z,17.18
2019-04-28T15:53:24.846Z,16.46
2019-04-28T15:56:10.617Z,16.62
2019-04-28T15:58:39.800Z,17.77
2019-04-28T16:01:07.198Z,19.80
2019-04-28T16:03:34.725Z,19.77
2019-04-28T16:06:03.126Z,17.74
2019-04-28T16:08:31.006Z,16.43
2019-04-28T16:10:58.234Z,15.31
2019-04-28T16:13:25.459Z,14.60
2019-04-28T16:15:54.872Z,14.73
2019-04-28T16:18:22.039Z,16.14
2019-04-28T16:20:49.782Z,17.15
2019-04-28T16:23:16.890Z,20.72
2019-04-28T16:25:43.979Z,23.24
2019-04-28T16:28:12.900Z,23.64
2019-04-28T16:30:42.958Z,22.79
2019-04-28T16:36:02.228Z,25.87
2019-04-28T16:38:34.741Z,28.14
2019-04-28T16:41:17.277Z,26.67
2019-04-28T16:43:45.586Z,25.57
2019-04-28T16:46:13.053Z,21.70
2019-04-28T16:48:40.156Z,21.84
2019-04-28T16:51:07.251Z,21.04
2019-04-28T16:53:34.672Z,21.01
2019-04-28T16:56:21.363Z,20.51
2019-04-28T16:59:20.165Z,21.05
2019-04-28T17:01:58.162Z,23.09
2019-04-28T17:04:25.801Z,23.58
2019-04-28T17:06:54.005Z,24.12
2019-04-28T17:09:21.454Z,23.00
2019-04-28T17:11:48.787Z,22.63
2019-04-28T17:14:16.035Z,22.78
2019-04-28T17:16:44.300Z,23.87
2019-04-28T17:19:11.367Z,25.44
2019-04-28T17:21:38.595Z,24.43
2019-04-28T17:24:06.087Z,24.87
2019-04-28T17:26:33.307Z,24.26
2019-04-28T17:29:01.810Z,23.47
2019-04-28T17:31:29.309Z,23.18
2019-04-28T17:33:56.645Z,24.44
2019-04-28T17:36:24.196Z,25.95
2019-04-28T17:38:51.903Z,27.71
2019-04-28T17:41:21.564Z,29.38
2019-04-28T17:43:48.940Z,31.46
2019-04-28T17:46:17.434Z,31.74
2019-04-28T17:48:52.030Z,31.12
2019-04-28T17:51:19.367Z,32.83
2019-04-28T17:53:48.270Z,36.47
2019-04-28T17:56:15.420Z,36.11
2019-04-28T17:58:53.205Z,35.35
2019-04-28T18:02:00.232Z,33.94
2019-04-28T18:04:41.497Z,34.13
2019-04-28T18:07:13.193Z,33.53
2019-04-28T18:09:40.409Z,34.58
2019-04-28T18:12:10.253Z,37.36
2019-04-28T18:14:39.535Z,38.91
2019-04-28T18:17:27.449Z,41.09
2019-04-28T18:19:54.763Z,42.99
2019-04-28T18:22:28.907Z,43.86
2019-04-28T18:24:57.197Z,44.43
2019-04-28T18:27:24.531Z,44.73
2019-04-28T18:29:51.698Z,44.99
2019-04-28T18:32:56.706Z,46.20
2019-04-28T18:35:30.635Z,47.29
2019-04-28T18:38:11.013Z,48.67
2019-04-28T18:41:00.485Z,49.42
2019-04-28T18:43:47.165Z,50.13
2019-04-28T18:46:17.118Z,50.47
2019-04-28T18:48:44.285Z,51.38
2019-04-28T18:51:11.552Z,52.00
2019-04-28T18:53:41.078Z,52.31
2019-04-28T18:56:11.919Z,52.43
2019-04-28T18:58:39.070Z,53.25
2019-04-28T19:01:16.021Z,53.38
2019-04-28T19:03:52.499Z,53.82
2019-04-28T19:06:29.962Z,54.50
2019-04-28T19:09:21.962Z,55.55
2019-04-28T19:12:18.274Z,56.71
2019-04-28T19:14:51.419Z,57.82
2019-04-28T19:17:41.539Z,57.71
2019-04-28T19:20:08.965Z,58.42
2019-04-28T19:22:45.494Z,59.44
2019-04-28T19:25:14.426Z,59.41
2019-04-28T19:27:41.604Z,59.98
2019-04-28T19:30:09.785Z,59.52
2019-04-28T19:32:40.342Z,58.52
2019-04-28T19:35:08.020Z,58.09
2019-04-28T19:37:36.160Z,57.82
2019-04-28T19:40:04.825Z,58.17
2019-04-28T19:42:34.903Z,58.52
2019-04-28T19:45:03.379Z,59.29
2019-04-28T19:47:31.204Z,60.16
2019-04-28T19:49:58.508Z,60.94
2019-04-28T19:52:26.119Z,61.29
2019-04-28T19:55:14.999Z,61.48
2019-04-28T19:57:50.210Z,61.71
2019-04-28T20:00:23.135Z,62.55
2019-04-28T20:02:50.617Z,62.54
2019-04-28T20:05:18.071Z,63.23
2019-04-28T20:07:45.369Z,63.74
2019-04-28T20:10:13.147Z,64.42
2019-04-28T20:12:40.866Z,64.87
2019-04-28T20:15:13.266Z,64.69
2019-04-28T20:17:40.562Z,64.45
2019-04-28T20:20:07.855Z,63.50
2019-04-28T20:22:35.022Z,63.43
2019-04-28T20:25:08.826Z,63.69
2019-04-28T20:27:36.901Z,63.77
2019-04-28T20:30:13.881Z,64.24
2019-04-28T20:32:47.570Z,64.36
2019-04-28T20:35:25.702Z,64.27
2019-04-28T20:38:01.441Z,64.40
2019-04-28T20:40:34.574Z,64.21
2019-04-28T20:43:21.029Z,64.45
2019-04-28T20:45:48.123Z,65.15
2019-04-28T20:48:15.485Z,65.79
2019-04-28T20:50:42.603Z,65.61
2019-04-28T20:53:10.921Z,65.55
2019-04-28T20:55:40.757Z,66.37
2019-04-28T20:58:07.983Z,66.66
2019-04-28T21:00:37.106Z,67.30
2019-04-28T21:03:08.894Z,67.46
2019-04-28T21:05:37.911Z,67.75
2019-04-28T21:08:05.178Z,67.70
2019-04-28T21:10:38.069Z,67.97
2019-04-28T21:13:02.148Z,69.58
2019-04-28T21:15:29.365Z,68.84
2019-04-28T21:17:57.497Z,68.36
2019-04-28T21:20:24.590Z,67.63
2019-04-28T21:22:53.045Z,67.58
2019-04-28T21:25:20.179Z,68.47
2019-04-28T21:27:47.616Z,68.07
2019-04-28T21:30:15.641Z,68.04
2019-04-28T21:32:43.308Z,67.68
2019-04-28T21:35:10.383Z,67.04
2019-04-28T21:37:37.475Z,67.09
2019-04-28T21:40:05.356Z,67.55
2019-04-28T21:42:55.889Z,67.75
2019-04-28T21:45:42.600Z,67.64
2019-04-28T21:48:10.590Z,68.46
2019-04-28T21:50:39.762Z,68.62
2019-04-28T21:53:08.695Z,69.03
2019-04-28T21:55:36.109Z,68.63
2019-04-28T21:58:03.396Z,68.65
2019-04-28T22:00:42.760Z,69.03
2019-04-28T22:03:24.909Z,68.96
2019-04-28T22:05:52.780Z,68.91
2019-04-28T22:08:19.966Z,68.62
2019-04-28T22:10:47.064Z,68.51
2019-04-28T22:13:14.207Z,68.36
2019-04-28T22:15:41.392Z,68.58
2019-04-28T22:18:08.741Z,68.53
2019-04-28T22:20:36.947Z,68.47
2019-04-28T22:23:17.932Z,68.18
2019-04-28T22:25:35.748Z,68.21
2019-04-28T22:28:05.486Z,68.81
2019-04-28T22:30:32.526Z,69.11
2019-04-28T22:32:59.721Z,69.02
2019-04-28T22:35:27.098Z,69.47
2019-04-28T22:37:54.270Z,69.44
2019-04-28T22:40:21.415Z,69.71
2019-04-28T22:42:49.962Z,69.55
2019-04-28T22:45:17.349Z,69.41
2019-04-28T22:47:44.741Z,69.73
2019-04-28T22:50:32.150Z,69.54
2019-04-28T22:52:59.177Z,69.20
2019-04-28T22:55:26.851Z,69.46
2019-04-28T22:58:28.701Z,69.95
2019-04-28T23:01:00.259Z,70.11
2019-04-28T23:03:41.441Z,70.20
2019-04-28T23:06:10.491Z,70.38
2019-04-28T23:08:37.532Z,70.28
2019-04-28T23:11:04.640Z,70.41
2019-04-28T23:13:31.702Z,70.29
2019-04-28T23:15:59.594Z,70.48
2019-04-28T23:18:28.225Z,70.50
2019-04-28T23:20:58.614Z,70.49
2019-04-28T23:23:26.850Z,70.48
2019-04-28T23:25:54.047Z,70.64
2019-04-28T23:28:21.137Z,70.61
2019-04-28T23:30:48.167Z,70.51
2019-04-28T23:33:15.261Z,70.19
2019-04-28T23:35:43.437Z,70.29
2019-04-28T23:38:10.485Z,70.47
2019-04-28T23:40:42.020Z,70.79
2019-04-28T23:43:14.114Z,71.34
2019-04-28T23:45:41.171Z,71.60
2019-04-28T23:48:10.146Z,71.69
2019-04-28T23:50:56.200Z,71.52
2019-04-28T23:53:43.166Z,71.75
2019-04-28T23:56:10.189Z,71.75
2019-04-28T23:58:37.343Z,71.83
